Time;durP1;ratioP1;P1;durP2;ratioP2;P2;SDS_P1;SDS_P2;PMS_P1;PMS_P2;Temp;Humidity;BMP_temperature;BMP_pressure;BME280_temperature;BME280_humidity;BME280_pressure;Samples;Min_cycle;Max_cycle;Signal;HPM_P1;HPM_P2
2022/02/12 00:00:28;;;;;;;37.63;24.52;;;10.80;85.30;;;;;;4995926;28;20391;-76
2022/02/12 00:02:56;;;;;;;33.78;23.33;;;10.80;85.10;;;;;;4995386;28;20018;-76
2022/02/12 00:05:26;;;;;;;34.80;23.95;;;10.80;84.70;;;;;;4962220;28;20045;-76
2022/02/12 00:07:58;;;;;;;37.47;24.83;;;10.80;84.70;;;;;;4978413;28;20080;-77
2022/02/12 00:10:26;;;;;;;36.67;23.58;;;10.80;84.40;;;;;;5003693;28;20038;-77
2022/02/12 00:12:52;;;;;;;33.30;22.90;;;10.70;84.40;;;;;;5010287;28;20027;-77
2022/02/12 00:15:19;;;;;;;33.92;22.05;;;10.70;84.00;;;;;;5003948;28;20034;-78
2022/02/12 00:17:45;;;;;;;31.08;21.67;;;10.60;84.20;;;;;;4978048;28;20026;-78
2022/02/12 00:20:13;;;;;;;30.52;20.92;;;10.50;84.20;;;;;;4994909;28;20105;-77
2022/02/12 00:22:40;;;;;;;28.88;21.50;;;10.40;84.40;;;;;;4994771;28;20023;-78
2022/02/12 00:25:07;;;;;;;30.42;21.42;;;10.40;84.20;;;;;;4977671;28;20049;-74
2022/02/12 00:27:34;;;;;;;29.80;21.25;;;10.40;84.00;;;;;;4961568;28;20096;-76
2022/02/12 00:30:00;;;;;;;32.95;22.60;;;10.30;84.10;;;;;;4995087;28;20034;-78
2022/02/12 00:32:27;;;;;;;31.95;22.48;;;10.30;83.90;;;;;;4994849;28;20027;-77
2022/02/12 00:34:53;;;;;;;31.40;21.90;;;10.20;84.00;;;;;;4994483;28;20038;-77
2022/02/12 00:37:19;;;;;;;30.67;21.58;;;10.10;84.30;;;;;;4994935;28;20073;-77
2022/02/12 00:39:44;;;;;;;36.83;23.63;;;10.10;84.40;;;;;;4994799;28;20030;-78
2022/02/12 00:42:11;;;;;;;34.08;22.27;;;10.10;84.50;;;;;;4994783;28;20101;-78
2022/02/12 00:44:41;;;;;;;30.40;22.48;;;10.10;84.40;;;;;;4995420;28;20116;-75
2022/02/12 00:47:08;;;;;;;33.38;22.92;;;10.10;83.70;;;;;;4996491;28;20065;-77
2022/02/12 00:49:34;;;;;;;29.20;21.13;;;10.00;84.60;;;;;;4978593;28;20076;-78
2022/02/12 00:52:00;;;;;;;31.27;21.63;;;10.00;84.50;;;;;;4994412;28;20046;-77
2022/02/12 00:54:26;;;;;;;29.80;20.90;;;10.00;84.80;;;;;;4976843;28;20515;-77
2022/02/12 00:56:52;;;;;;;27.65;20.05;;;9.90;85.90;;;;;;4977221;28;20212;-79
2022/02/12 00:59:17;;;;;;;30.80;21.40;;;9.90;86.20;;;;;;4976409;28;20030;-77
2022/02/12 01:01:43;;;;;;;27.85;21.23;;;9.90;86.10;;;;;;4994709;28;20026;-78
2022/02/12 01:04:08;;;;;;;28.63;20.40;;;9.80;86.10;;;;;;4977214;28;20035;-78
2022/02/12 01:06:35;;;;;;;29.63;21.10;;;9.80;86.80;;;;;;4994597;28;20093;-77
2022/02/12 01:09:02;;;;;;;26.88;20.13;;;9.80;86.40;;;;;;4994305;28;20034;-76
2022/02/12 01:11:29;;;;;;;26.92;18.70;;;9.80;86.40;;;;;;4960696;28;20387;-79
2022/02/12 01:13:54;;;;;;;27.02;18.52;;;9.80;86.30;;;;;;4994281;28;20034;-77
2022/02/12 01:16:20;;;;;;;26.92;19.33;;;9.70;87.00;;;;;;4994298;28;20029;-79
2022/02/12 01:18:46;;;;;;;26.10;19.25;;;9.80;87.20;;;;;;4994042;28;20061;-77
2022/02/12 01:21:12;;;;;;;25.17;18.83;;;9.80;87.20;;;;;;4994249;28;20027;-78
2022/02/12 01:23:37;;;;;;;28.73;18.88;;;9.70;87.20;;;;;;4994009;28;20026;-77
2022/02/12 01:26:04;;;;;;;28.33;19.27;;;9.70;87.10;;;;;;4994002;28;20073;-78
2022/02/12 01:28:30;;;;;;;24.77;18.33;;;9.70;87.10;;;;;;4993795;28;20034;-78
2022/02/12 01:30:56;;;;;;;30.92;20.58;;;9.80;87.30;;;;;;4993937;28;20557;-77
2022/02/12 01:33:22;;;;;;;25.45;19.05;;;9.80;87.20;;;;;;4993991;28;20034;-78
2022/02/12 01:35:49;;;;;;;26.52;20.13;;;9.80;87.70;;;;;;4993981;28;20361;-77
2022/02/12 01:38:17;;;;;;;31.52;20.70;;;9.80;87.50;;;;;;4993763;28;20168;-77
2022/02/12 01:40:45;;;;;;;30.52;20.55;;;9.80;87.30;;;;;;4993687;28;20026;-77
2022/02/12 01:43:13;;;;;;;29.80;20.92;;;9.80;88.00;;;;;;4993602;28;20029;-78
2022/02/12 01:45:41;;;;;;;31.73;22.00;;;9.80;87.60;;;;;;4993405;28;20105;-75
2022/02/12 01:48:07;;;;;;;29.95;21.40;;;9.70;88.10;;;;;;4993221;28;20034;-77
2022/02/12 01:50:33;;;;;;;29.88;21.58;;;9.70;88.50;;;;;;4993470;28;20080;-76
2022/02/12 01:52:59;;;;;;;30.65;21.05;;;9.70;88.50;;;;;;4993392;28;20037;-74
2022/02/12 01:55:25;;;;;;;29.67;21.13;;;9.70;89.30;;;;;;4993330;28;20034;-76
2022/02/12 01:57:51;;;;;;;36.17;23.10;;;9.70;88.90;;;;;;4993270;28;20073;-73
2022/02/12 02:00:18;;;;;;;32.28;21.30;;;9.60;88.70;;;;;;4993128;28;20455;-75
2022/02/12 02:02:44;;;;;;;32.85;21.92;;;9.50;89.50;;;;;;4975811;28;20074;-74
2022/02/12 02:05:11;;;;;;;27.33;21.10;;;9.60;89.40;;;;;;4993230;28;20023;-72
2022/02/12 02:07:39;;;;;;;30.60;21.40;;;9.50;89.50;;;;;;4975762;28;20073;-74
2022/02/12 02:10:05;;;;;;;28.45;21.02;;;9.50;89.70;;;;;;4993033;28;20414;-74
2022/02/12 02:12:32;;;;;;;29.77;20.77;;;9.50;89.60;;;;;;4995939;28;20034;-72
2022/02/12 02:14:57;;;;;;;26.38;19.63;;;9.50;89.70;;;;;;4996423;28;20068;-74
2022/02/12 02:17:23;;;;;;;27.52;20.35;;;9.40;89.30;;;;;;4997141;28;20465;-78
2022/02/12 02:19:50;;;;;;;26.20;20.75;;;9.40;89.60;;;;;;4979393;28;20034;-76
2022/02/12 02:22:16;;;;;;;28.10;20.42;;;9.40;90.00;;;;;;4996827;28;20025;-75
2022/02/12 02:24:42;;;;;;;26.52;19.65;;;9.40;89.80;;;;;;4979446;28;20038;-72
2022/02/12 02:27:15;;;;;;;25.60;19.65;;;9.40;90.30;;;;;;4997205;28;20023;-73
2022/02/12 02:29:42;;;;;;;24.40;18.80;;;9.30;90.10;;;;;;4996976;28;20038;-78
2022/02/12 02:32:09;;;;;;;28.55;20.13;;;9.30;90.30;;;;;;4996845;28;20030;-78
2022/02/12 02:34:35;;;;;;;24.70;18.30;;;9.30;90.10;;;;;;4996530;28;20492;-77
2022/02/12 02:37:03;;;;;;;27.13;18.52;;;9.30;90.20;;;;;;4996824;28;20046;-77
2022/02/12 02:39:29;;;;;;;25.13;17.67;;;9.30;89.90;;;;;;4996794;28;20026;-78
2022/02/12 02:41:57;;;;;;;26.10;18.48;;;9.30;90.00;;;;;;4962610;28;20096;-75
2022/02/12 02:44:23;;;;;;;25.88;17.50;;;9.30;89.80;;;;;;4996802;28;20531;-76
2022/02/12 02:46:49;;;;;;;26.33;18.48;;;9.40;90.00;;;;;;4979010;28;20062;-74
2022/02/12 02:49:15;;;;;;;26.42;18.02;;;9.40;90.00;;;;;;4962986;28;20061;-78
2022/02/12 02:57:15;;;;;;;26.50;17.88;;;9.30;89.70;;;;;;4971927;28;20033;-77
2022/02/12 02:59:41;;;;;;;29.27;17.67;;;9.30;90.00;;;;;;4999096;28;20034;-77
2022/02/12 03:02:07;;;;;;;23.67;18.40;;;9.30;89.70;;;;;;4996563;28;20018;-76
2022/02/12 03:04:32;;;;;;;28.30;18.45;;;9.30;89.80;;;;;;4996524;28;20022;-77
2022/02/12 03:06:58;;;;;;;26.50;18.08;;;9.20;89.70;;;;;;4996494;28;20022;-76
2022/02/12 03:09:24;;;;;;;25.83;18.73;;;9.30;90.00;;;;;;4996681;28;20019;-76
2022/02/12 03:11:52;;;;;;;25.92;18.27;;;9.20;89.80;;;;;;4979221;28;20136;-78
2022/02/12 03:14:18;;;;;;;22.95;18.17;;;9.30;90.00;;;;;;4996699;28;20064;-77
2022/02/12 03:16:44;;;;;;;24.77;18.10;;;9.20;90.00;;;;;;4978529;28;20014;-72
2022/02/12 03:19:09;;;;;;;26.63;18.90;;;9.10;90.00;;;;;;4996073;28;20467;-75
2022/02/12 03:21:35;;;;;;;24.73;17.67;;;9.10;90.10;;;;;;4995653;28;20403;-76
2022/02/12 03:24:01;;;;;;;24.30;17.70;;;9.00;90.20;;;;;;4995987;28;20078;-78
2022/02/12 03:26:26;;;;;;;22.40;17.48;;;9.00;90.20;;;;;;4995962;28;20364;-76
2022/02/12 03:28:52;;;;;;;28.60;20.02;;;8.90;90.60;;;;;;4995801;28;20085;-74
2022/02/12 03:31:18;;;;;;;28.15;19.67;;;8.80;90.70;;;;;;4995916;28;20482;-74
2022/02/12 03:33:44;;;;;;;26.10;18.65;;;8.70;90.80;;;;;;4995768;28;20109;-71
2022/02/12 03:36:10;;;;;;;23.77;18.35;;;8.70;91.00;;;;;;4995568;28;20386;-71
2022/02/12 03:38:39;;;;;;;26.80;18.98;;;8.70;91.20;;;;;;4978323;28;20027;-72
2022/02/12 03:41:07;;;;;;;29.13;19.42;;;8.60;90.60;;;;;;4995646;28;20470;-72
2022/02/12 03:43:37;;;;;;;25.02;17.77;;;8.60;91.20;;;;;;4995654;28;20040;-69
2022/02/12 03:46:04;;;;;;;26.13;18.08;;;8.60;91.50;;;;;;4995512;28;20030;-72
2022/02/12 03:48:30;;;;;;;27.58;17.80;;;8.70;91.30;;;;;;4995338;28;20104;-70
2022/02/12 03:50:56;;;;;;;22.55;17.23;;;8.70;91.00;;;;;;4995284;28;20107;-72
2022/02/12 03:53:22;;;;;;;24.48;16.70;;;8.70;90.90;;;;;;4994451;28;20494;-72
2022/02/12 03:55:49;;;;;;;24.13;16.48;;;8.80;91.00;;;;;;4960816;28;20034;-70
2022/02/12 03:58:17;;;;;;;23.75;15.82;;;8.80;90.90;;;;;;4994306;28;20452;-72
2022/02/12 04:00:45;;;;;;;25.00;16.90;;;8.80;90.80;;;;;;4994387;28;20117;-75
2022/02/12 04:03:11;;;;;;;25.67;16.38;;;8.80;90.60;;;;;;4994285;28;20030;-70
2022/02/12 04:05:41;;;;;;;23.00;15.63;;;8.80;90.50;;;;;;4994244;28;20034;-71
2022/02/12 04:08:07;;;;;;;20.85;15.88;;;8.90;90.50;;;;;;4976585;28;20034;-71
2022/02/12 04:10:33;;;;;;;21.75;15.90;;;8.80;90.30;;;;;;4994222;28;20038;-69
2022/02/12 04:12:59;;;;;;;24.80;16.13;;;8.80;90.40;;;;;;4993953;28;20022;-71
2022/02/12 04:15:25;;;;;;;22.38;14.73;;;8.80;90.60;;;;;;4994186;28;20030;-72
2022/02/12 04:17:53;;;;;;;20.75;15.77;;;8.80;90.30;;;;;;4993906;28;20046;-73
2022/02/12 04:20:22;;;;;;;23.70;16.25;;;8.80;90.20;;;;;;4994067;28;20030;-70
2022/02/12 04:22:51;;;;;;;25.23;14.95;;;8.90;90.20;;;;;;4976638;28;20112;-69
2022/02/12 04:25:19;;;;;;;24.00;15.98;;;8.90;90.10;;;;;;4993998;28;20030;-74
2022/02/12 04:27:46;;;;;;;19.17;14.13;;;8.90;90.00;;;;;;4993810;28;20054;-76
2022/02/12 04:30:13;;;;;;;20.48;14.48;;;8.90;90.00;;;;;;4993720;28;20037;-70
2022/02/12 04:32:40;;;;;;;21.73;14.82;;;8.80;89.80;;;;;;4993771;28;20033;-71
2022/02/12 04:35:07;;;;;;;21.60;14.60;;;8.80;89.80;;;;;;4992735;28;20038;-71
2022/02/12 04:37:34;;;;;;;21.45;14.63;;;8.70;89.60;;;;;;4993795;28;20077;-71
2022/02/12 04:40:00;;;;;;;19.63;14.90;;;8.80;89.90;;;;;;4976346;28;20027;-70
2022/02/12 04:42:26;;;;;;;23.17;15.98;;;8.70;89.70;;;;;;4993621;28;20030;-70
2022/02/12 04:44:54;;;;;;;21.35;14.82;;;8.70;90.00;;;;;;4993621;28;20019;-73
2022/02/12 04:47:20;;;;;;;29.80;15.57;;;8.70;90.30;;;;;;4975902;28;20026;-71
2022/02/12 04:49:48;;;;;;;20.48;15.85;;;8.70;90.10;;;;;;4975821;28;20022;-69
2022/02/12 04:52:16;;;;;;;22.38;16.25;;;8.70;90.30;;;;;;4953445;28;1179413;-71
2022/02/12 04:54:41;;;;;;;21.23;16.20;;;8.60;90.60;;;;;;4994082;28;20042;-71
2022/02/12 04:57:08;;;;;;;23.42;17.55;;;8.50;90.80;;;;;;4994203;28;20077;-70
2022/02/12 04:59:34;;;;;;;20.23;16.27;;;8.50;91.20;;;;;;4994162;28;20034;-71
2022/02/12 05:02:00;;;;;;;24.13;16.30;;;8.50;91.10;;;;;;4960503;28;20416;-69
2022/02/12 05:04:26;;;;;;;24.60;15.90;;;8.60;91.00;;;;;;4994092;28;20073;-70
2022/02/12 05:06:52;;;;;;;21.88;15.85;;;8.50;91.50;;;;;;4994218;28;20034;-71
2022/02/12 05:09:18;;;;;;;22.95;16.13;;;8.40;91.30;;;;;;4976287;28;20395;-73
2022/02/12 05:11:50;;;;;;;25.77;16.92;;;8.40;91.40;;;;;;4993966;28;20050;-69
2022/02/12 05:14:17;;;;;;;22.25;16.00;;;8.50;91.60;;;;;;4994134;28;20037;-71
2022/02/12 05:16:43;;;;;;;23.25;15.52;;;8.60;91.40;;;;;;4994374;28;20518;-73
2022/02/12 05:19:11;;;;;;;24.58;16.48;;;8.60;91.30;;;;;;4976290;28;20066;-70
2022/02/12 05:21:37;;;;;;;26.20;16.25;;;8.60;90.80;;;;;;4977393;28;20026;-69
2022/02/12 05:24:03;;;;;;;22.25;15.90;;;8.60;91.30;;;;;;4994137;28;20464;-71
2022/02/12 05:26:31;;;;;;;23.50;16.15;;;8.60;91.10;;;;;;4994149;28;20041;-69
2022/02/12 05:28:57;;;;;;;24.10;16.80;;;8.60;90.60;;;;;;4993535;28;20172;-68
2022/02/12 05:31:23;;;;;;;23.13;16.75;;;8.60;91.70;;;;;;4976321;28;20042;-69
2022/02/12 05:33:50;;;;;;;24.25;16.58;;;8.60;91.30;;;;;;4993641;28;20034;-69
2022/02/12 05:36:17;;;;;;;33.85;17.33;;;8.60;91.30;;;;;;4993942;28;20485;-69
2022/02/12 05:38:43;;;;;;;23.08;16.70;;;8.50;91.00;;;;;;4993550;28;20103;-72
2022/02/12 05:41:11;;;;;;;23.55;16.55;;;8.50;91.40;;;;;;4993698;28;20438;-70
2022/02/12 05:43:38;;;;;;;27.35;17.73;;;8.50;91.60;;;;;;4993748;28;20106;-72
2022/02/12 05:46:04;;;;;;;21.63;15.90;;;8.40;91.80;;;;;;4993804;28;20356;-72
2022/02/12 05:48:30;;;;;;;23.63;16.55;;;8.40;91.90;;;;;;4993573;28;20356;-69
2022/02/12 05:50:56;;;;;;;24.00;16.48;;;8.40;91.70;;;;;;4993444;28;20063;-70
2022/02/12 05:53:23;;;;;;;25.02;16.73;;;8.30;91.70;;;;;;4993532;28;20038;-70
2022/02/12 05:55:49;;;;;;;22.83;16.52;;;8.30;91.90;;;;;;4993574;28;20057;-70
2022/02/12 05:58:17;;;;;;;24.05;15.32;;;8.30;92.00;;;;;;4993493;28;20029;-69
2022/02/12 06:00:42;;;;;;;21.33;15.50;;;8.30;92.20;;;;;;4993399;28;20022;-69
2022/02/12 06:03:08;;;;;;;25.65;17.40;;;8.30;92.10;;;;;;4993213;28;20380;-71
2022/02/12 06:05:35;;;;;;;23.70;16.55;;;8.30;91.80;;;;;;4993234;28;20042;-72
2022/02/12 06:08:01;;;;;;;20.13;15.43;;;8.30;92.00;;;;;;4993199;28;20026;-72
2022/02/12 06:10:27;;;;;;;21.95;16.15;;;8.30;92.00;;;;;;4993276;28;20081;-70
2022/02/12 06:12:54;;;;;;;21.33;16.45;;;8.30;91.80;;;;;;4993354;28;20046;-70
2022/02/12 06:15:20;;;;;;;20.83;15.68;;;8.40;91.90;;;;;;4993277;28;20093;-72
2022/02/12 06:17:47;;;;;;;22.55;15.48;;;8.40;91.80;;;;;;4993252;28;20483;-73
2022/02/12 06:20:14;;;;;;;22.90;16.90;;;8.30;91.70;;;;;;4993251;28;20755;-71
2022/02/12 06:22:39;;;;;;;22.02;16.27;;;8.30;91.90;;;;;;4993227;28;20407;-72
2022/02/12 06:25:06;;;;;;;24.35;15.23;;;8.30;91.70;;;;;;4993201;28;20568;-71
2022/02/12 06:27:32;;;;;;;22.40;15.85;;;8.30;91.90;;;;;;4975421;28;20483;-70
2022/02/12 06:29:57;;;;;;;22.17;15.55;;;8.30;91.80;;;;;;4993019;28;20033;-74
2022/02/12 06:32:24;;;;;;;21.75;16.52;;;8.30;91.90;;;;;;4993143;28;20105;-71
2022/02/12 06:34:55;;;;;;;27.92;15.77;;;8.30;91.80;;;;;;4992888;28;20031;-71
2022/02/12 06:37:21;;;;;;;24.40;15.32;;;8.30;91.80;;;;;;4992867;28;20038;-69
2022/02/12 06:39:47;;;;;;;25.45;16.05;;;8.30;91.70;;;;;;4975632;28;20336;-73
2022/02/12 06:42:14;;;;;;;22.90;16.10;;;8.30;91.70;;;;;;4993187;28;20375;-70
2022/02/12 06:44:41;;;;;;;22.50;15.85;;;8.30;91.50;;;;;;4992950;28;20033;-71
2022/02/12 06:47:07;;;;;;;21.05;15.55;;;8.30;91.70;;;;;;4993003;28;20030;-69
2022/02/12 06:49:33;;;;;;;22.13;15.32;;;8.30;91.50;;;;;;4992784;28;20027;-69
2022/02/12 06:51:59;;;;;;;24.67;16.38;;;8.40;91.40;;;;;;4992683;28;20046;-71
2022/02/12 06:54:25;;;;;;;22.65;16.52;;;8.40;91.20;;;;;;4975501;28;20152;-72
2022/02/12 06:56:51;;;;;;;21.35;15.63;;;8.40;91.20;;;;;;4992894;28;20102;-70
2022/02/12 06:59:18;;;;;;;20.45;14.63;;;8.50;90.90;;;;;;4996500;28;20502;-71
2022/02/12 07:01:43;;;;;;;21.95;15.07;;;8.50;90.20;;;;;;4996203;28;20045;-70
2022/02/12 07:04:09;;;;;;;18.38;14.05;;;8.60;90.70;;;;;;4995849;28;20399;-71
2022/02/12 07:06:35;;;;;;;22.23;15.30;;;8.70;90.40;;;;;;4995969;28;20062;-70
2022/02/12 07:09:04;;;;;;;21.90;14.82;;;8.80;90.10;;;;;;4996171;28;20432;-71
2022/02/12 07:11:30;;;;;;;20.40;13.63;;;8.90;89.60;;;;;;4996001;28;20089;-69
2022/02/12 07:13:56;;;;;;;22.60;14.25;;;9.00;89.30;;;;;;4995819;28;20034;-70
2022/02/12 07:16:22;;;;;;;22.27;14.00;;;9.00;89.00;;;;;;4995981;28;20057;-71
2022/02/12 07:18:49;;;;;;;20.45;13.77;;;9.10;88.10;;;;;;4995767;28;20073;-73
2022/02/12 07:21:15;;;;;;;18.23;13.63;;;9.20;88.10;;;;;;4996035;28;20359;-71
2022/02/12 07:23:41;;;;;;;21.83;14.35;;;9.30;88.00;;;;;;4996098;28;20463;-71
2022/02/12 07:26:13;;;;;;;20.95;14.13;;;9.40;87.60;;;;;;4996006;28;20037;-71
2022/02/12 07:28:42;;;;;;;19.95;14.27;;;9.50;86.90;;;;;;4995430;28;20170;-72
2022/02/12 07:31:11;;;;;;;21.65;14.02;;;9.70;86.10;;;;;;4978903;28;20026;-67
2022/02/12 07:33:36;;;;;;;22.10;14.20;;;9.80;86.10;;;;;;4995531;28;20511;-70
2022/02/12 07:36:02;;;;;;;18.33;13.40;;;9.90;85.10;;;;;;4995530;28;20033;-69
2022/02/12 07:38:29;;;;;;;19.98;12.98;;;9.90;85.00;;;;;;4995684;28;20019;-68
2022/02/12 07:40:55;;;;;;;20.60;13.15;;;10.00;83.60;;;;;;4995616;28;20096;-69
2022/02/12 07:43:20;;;;;;;16.35;12.38;;;10.10;83.50;;;;;;4995638;28;20058;-71
2022/02/12 07:45:47;;;;;;;21.40;12.23;;;10.10;82.40;;;;;;4995551;28;20054;-69
2022/02/12 07:48:13;;;;;;;20.98;13.40;;;10.20;82.80;;;;;;4995376;28;20030;-69
2022/02/12 07:50:41;;;;;;;18.65;13.07;;;10.30;82.20;;;;;;4995183;28;20038;-72
2022/02/12 07:53:07;;;;;;;17.67;12.13;;;10.30;81.10;;;;;;4995076;28;20112;-70
2022/02/12 07:55:35;;;;;;;20.83;12.48;;;10.40;81.40;;;;;;4995399;28;20391;-71
2022/02/12 07:58:01;;;;;;;23.67;13.30;;;10.40;80.20;;;;;;4995587;28;20065;-70
2022/02/12 08:00:26;;;;;;;26.13;17.30;;;10.40;80.40;;;;;;4996184;28;20476;-69
2022/02/12 08:02:56;;;;;;;26.05;18.42;;;10.50;80.20;;;;;;4978665;28;20027;-69
2022/02/12 08:05:25;;;;;;;21.95;14.48;;;10.50;79.30;;;;;;4995512;28;20026;-73
2022/02/12 08:07:51;;;;;;;23.73;15.52;;;10.60;79.20;;;;;;4994980;28;20110;-69
2022/02/12 08:13:03;;;;;;;17.63;12.77;;;10.70;78.50;;;;;;4980409;28;20109;-75
2022/02/12 08:15:29;;;;;;;21.10;13.60;;;10.70;77.90;;;;;;4995124;28;20480;-70
2022/02/12 08:17:55;;;;;;;21.13;13.57;;;10.60;77.90;;;;;;4994798;28;20028;-68
2022/02/12 08:20:22;;;;;;;22.40;13.00;;;10.60;77.70;;;;;;4994539;28;20042;-70
2022/02/12 08:22:50;;;;;;;22.20;12.20;;;10.60;77.50;;;;;;4977493;28;20077;-71
2022/02/12 08:25:15;;;;;;;17.08;12.75;;;10.60;77.80;;;;;;4995928;28;20014;-72
2022/02/12 08:27:42;;;;;;;19.13;12.43;;;10.70;76.80;;;;;;4995996;28;20089;-69
2022/02/12 08:30:09;;;;;;;19.90;12.85;;;10.60;77.10;;;;;;4995845;28;20434;-70
2022/02/12 08:32:41;;;;;;;20.60;12.52;;;10.70;76.70;;;;;;4994463;28;20160;-70
2022/02/12 08:35:13;;;;;;;16.98;12.45;;;10.70;76.60;;;;;;4994390;28;20459;-67
2022/02/12 08:37:44;;;;;;;19.40;12.18;;;10.80;77.10;;;;;;4994426;28;20026;-70
2022/02/12 08:40:18;;;;;;;20.92;12.88;;;10.90;75.80;;;;;;4994190;28;20026;-67
2022/02/12 08:42:44;;;;;;;22.33;11.95;;;10.90;75.60;;;;;;4993948;28;20022;-67
2022/02/12 08:45:10;;;;;;;16.13;11.32;;;11.00;75.10;;;;;;4994233;28;20093;-68
2022/02/12 08:47:36;;;;;;;18.77;10.77;;;11.00;75.10;;;;;;4994255;28;20157;-69
2022/02/12 08:50:03;;;;;;;20.92;11.90;;;11.00;74.60;;;;;;4994289;28;20022;-74
2022/02/12 08:52:29;;;;;;;47.40;29.63;;;10.90;74.50;;;;;;4992655;28;20057;-74
2022/02/12 08:54:55;;;;;;;22.90;16.85;;;11.00;74.50;;;;;;4993372;28;20388;-73
2022/02/12 08:57:20;;;;;;;20.77;13.82;;;11.10;74.40;;;;;;4993951;28;20023;-74
2022/02/12 08:59:46;;;;;;;16.00;11.90;;;11.10;74.30;;;;;;4993721;28;20063;-67
2022/02/12 09:02:13;;;;;;;16.65;10.93;;;11.20;74.20;;;;;;4993669;28;20022;-72
2022/02/12 09:04:40;;;;;;;29.65;13.43;;;11.30;74.10;;;;;;4993772;28;20035;-77
2022/02/12 09:07:06;;;;;;;18.88;12.00;;;11.40;74.40;;;;;;4960345;28;20098;-74
2022/02/12 09:09:32;;;;;;;18.13;12.30;;;11.50;74.00;;;;;;4993637;28;20387;-69
2022/02/12 09:11:59;;;;;;;20.38;11.65;;;11.50;73.60;;;;;;4975979;28;20030;-67
2022/02/12 09:14:25;;;;;;;18.05;11.95;;;11.70;74.00;;;;;;4993292;28;20096;-72
2022/02/12 09:16:51;;;;;;;18.08;12.05;;;11.80;73.30;;;;;;4993016;28;20030;-75
2022/02/12 09:19:16;;;;;;;20.00;12.23;;;11.80;72.20;;;;;;4992908;28;20038;-74
2022/02/12 09:21:42;;;;;;;24.08;13.75;;;11.80;71.90;;;;;;4975193;28;20487;-75
2022/02/12 09:24:09;;;;;;;20.75;12.75;;;11.90;71.60;;;;;;4975864;28;20034;-75
2022/02/12 09:26:35;;;;;;;20.02;13.32;;;11.90;71.60;;;;;;4993118;28;20030;-75
2022/02/12 09:29:06;;;;;;;20.23;14.63;;;12.00;71.50;;;;;;4993464;28;20391;-76
2022/02/12 09:31:32;;;;;;;21.67;13.43;;;12.10;70.90;;;;;;4977130;28;20077;-75
2022/02/12 09:33:58;;;;;;;20.15;14.57;;;12.10;70.90;;;;;;4992820;28;20517;-73
2022/02/12 09:36:26;;;;;;;18.77;14.23;;;12.20;70.80;;;;;;4992451;28;20048;-75
2022/02/12 09:38:51;;;;;;;20.45;14.60;;;12.20;70.70;;;;;;4979345;23;20046;-77
2022/02/12 09:41:23;;;;;;;23.15;16.33;;;12.30;70.30;;;;;;4993497;28;20038;-74
2022/02/12 09:43:51;;;;;;;25.88;17.08;;;12.30;69.60;;;;;;4976727;28;20361;-72
2022/02/12 09:46:29;;;;;;;25.60;17.20;;;12.40;70.00;;;;;;5002575;28;20386;-73
2022/02/12 09:48:55;;;;;;;30.52;15.57;;;12.50;69.90;;;;;;4973751;28;20035;-71
2022/02/12 09:51:23;;;;;;;22.80;14.70;;;12.60;69.00;;;;;;4973653;28;20019;-75
2022/02/12 09:53:49;;;;;;;23.98;15.63;;;12.70;68.60;;;;;;4973820;28;20042;-73
2022/02/12 09:56:15;;;;;;;24.15;15.98;;;12.80;68.80;;;;;;4973562;28;20022;-73
2022/02/12 09:58:41;;;;;;;26.75;18.92;;;12.90;68.70;;;;;;4973573;28;20116;-73
2022/02/12 10:01:09;;;;;;;30.65;19.00;;;12.90;67.80;;;;;;4973868;28;20109;-75
2022/02/12 10:03:38;;;;;;;30.05;19.05;;;13.00;68.00;;;;;;4973809;28;20035;-75
2022/02/12 10:06:04;;;;;;;28.63;19.27;;;13.10;67.70;;;;;;4974731;28;20030;-76
2022/02/12 10:08:30;;;;;;;30.08;19.40;;;13.10;67.50;;;;;;4975534;28;20027;-75
2022/02/12 10:10:56;;;;;;;33.85;19.25;;;13.20;67.70;;;;;;4975091;28;20029;-71
2022/02/12 10:13:24;;;;;;;28.00;18.88;;;13.30;67.50;;;;;;4956927;28;20038;-72
2022/02/12 10:15:54;;;;;;;29.17;18.38;;;13.40;66.90;;;;;;4974074;28;20023;-73
2022/02/12 10:18:21;;;;;;;24.67;17.50;;;13.50;66.40;;;;;;4973790;28;20045;-74
2022/02/12 10:20:48;;;;;;;25.80;16.92;;;13.60;66.20;;;;;;4973575;28;20448;-75
2022/02/12 10:23:31;;;;;;;25.50;18.75;;;13.70;66.00;;;;;;4973451;28;20030;-75
2022/02/12 10:26:02;;;;;;;26.52;18.20;;;13.80;65.70;;;;;;4973580;28;20123;-77
2022/02/12 10:28:30;;;;;;;33.67;16.70;;;13.90;64.70;;;;;;4956260;28;20406;-77
2022/02/12 10:30:56;;;;;;;27.13;18.45;;;14.00;64.80;;;;;;4973651;28;20431;-78
2022/02/12 10:33:25;;;;;;;27.23;17.38;;;14.10;64.50;;;;;;4958294;28;20027;-73
2022/02/12 10:35:56;;;;;;;22.85;16.70;;;14.20;63.60;;;;;;4977157;28;20102;-77
2022/02/12 10:38:25;;;;;;;28.15;16.77;;;14.30;63.90;;;;;;4976876;28;20023;-73
2022/02/12 10:41:26;;;;;;;25.38;16.13;;;14.30;63.40;;;;;;4976958;28;20050;-72
2022/02/12 10:43:54;;;;;;;25.55;16.80;;;14.40;63.40;;;;;;4898060;29;20115;-76
2022/02/12 10:46:22;;;;;;;25.48;17.73;;;14.50;63.70;;;;;;4962050;28;20399;-75
2022/02/12 10:48:51;;;;;;;26.23;16.83;;;14.60;62.70;;;;;;4959374;28;20476;-75
2022/02/12 10:51:17;;;;;;;23.83;15.52;;;14.70;62.60;;;;;;4976910;28;20046;-74
2022/02/12 10:53:55;;;;;;;21.77;14.57;;;14.80;62.40;;;;;;4976946;28;20066;-75
2022/02/12 10:56:21;;;;;;;23.13;15.48;;;14.90;62.30;;;;;;4977246;28;20031;-76
2022/02/12 10:58:48;;;;;;;22.30;15.32;;;15.00;62.20;;;;;;4959707;28;20031;-74
2022/02/12 11:01:14;;;;;;;23.02;16.15;;;15.00;61.40;;;;;;4977088;28;20484;-73
2022/02/12 11:03:40;;;;;;;25.30;18.35;;;15.10;61.20;;;;;;4976820;28;20042;-74
2022/02/12 11:06:06;;;;;;;29.35;16.73;;;15.20;61.40;;;;;;4976753;28;20543;-74
2022/02/12 11:08:32;;;;;;;22.45;15.65;;;15.30;60.80;;;;;;4976705;28;20026;-77
2022/02/12 11:11:00;;;;;;;21.85;14.57;;;15.30;60.20;;;;;;4976745;28;20483;-74
2022/02/12 11:13:26;;;;;;;17.55;12.27;;;15.40;60.20;;;;;;4959239;28;20489;-75
2022/02/12 11:15:52;;;;;;;20.50;12.90;;;15.50;59.80;;;;;;4976572;28;20023;-76
2022/02/12 11:18:24;;;;;;;17.83;12.32;;;15.60;59.60;;;;;;4977281;28;20065;-78
2022/02/12 11:20:54;;;;;;;16.35;11.20;;;15.60;58.90;;;;;;4959146;28;20042;-76
2022/02/12 11:23:20;;;;;;;18.65;11.13;;;15.70;57.90;;;;;;4976809;28;20582;-71
2022/02/12 11:25:47;;;;;;;17.52;11.40;;;15.70;56.50;;;;;;4977396;28;20110;-76
2022/02/12 11:28:14;;;;;;;19.02;11.70;;;15.70;56.00;;;;;;4976480;28;20249;-79
2022/02/12 11:30:42;;;;;;;18.38;11.50;;;15.90;56.60;;;;;;4976870;28;20113;-74
2022/02/12 11:33:19;;;;;;;17.40;10.43;;;15.90;55.80;;;;;;4976592;28;20027;-75
2022/02/12 11:36:10;;;;;;;15.80;10.93;;;16.00;55.20;;;;;;4976017;28;20050;-77
2022/02/12 11:38:37;;;;;;;16.25;10.63;;;16.10;54.70;;;;;;4976090;28;20123;-76
2022/02/12 11:41:23;;;;;;;12.45;9.68;;;16.10;54.00;;;;;;4975818;28;20105;-76
2022/02/12 11:43:50;;;;;;;16.40;11.50;;;16.20;53.80;;;;;;4975576;28;20034;-77
2022/02/12 11:46:42;;;;;;;16.15;11.55;;;16.30;53.70;;;;;;4958805;28;20030;-77
2022/02/12 11:49:34;;;;;;;19.42;11.65;;;16.40;54.20;;;;;;4958578;28;20039;-75
2022/02/12 11:52:11;;;;;;;19.00;10.77;;;16.40;53.90;;;;;;4976941;28;20082;-75
2022/02/12 11:54:49;;;;;;;28.58;21.63;;;16.40;52.60;;;;;;4976267;28;20038;-74
2022/02/12 11:57:25;;;;;;;17.52;11.43;;;16.40;52.60;;;;;;4975511;28;20085;-77
2022/02/12 12:00:00;;;;;;;14.98;10.63;;;16.50;53.10;;;;;;4975378;28;20030;-75
2022/02/12 12:02:41;;;;;;;15.25;10.13;;;16.50;52.30;;;;;;4975560;28;20035;-72
2022/02/12 12:05:26;;;;;;;15.27;10.00;;;16.60;52.20;;;;;;4975302;28;20027;-77
2022/02/12 12:08:01;;;;;;;18.25;11.23;;;16.60;52.30;;;;;;4975437;28;20034;-76
2022/02/12 12:10:37;;;;;;;14.80;9.50;;;16.70;52.50;;;;;;4957811;28;20041;-73
2022/02/12 12:13:12;;;;;;;12.98;9.20;;;16.70;52.20;;;;;;4957850;28;20341;-72
2022/02/12 12:15:47;;;;;;;14.23;9.07;;;16.80;51.20;;;;;;4975083;28;20043;-77
2022/02/12 12:18:13;;;;;;;14.10;8.65;;;16.80;50.90;;;;;;4975116;28;20098;-73
2022/02/12 12:20:41;;;;;;;16.92;9.57;;;16.90;50.50;;;;;;4975097;28;20457;-75
2022/02/12 12:23:12;;;;;;;14.38;9.27;;;17.00;50.30;;;;;;4974745;28;20448;-73
2022/02/12 12:26:04;;;;;;;17.60;10.10;;;17.00;49.90;;;;;;4941695;28;20019;-75
2022/02/12 12:31:46;;;;;;;14.45;10.27;;;17.00;49.10;;;;;;4975740;28;20053;-77
2022/02/12 12:34:12;;;;;;;14.88;10.07;;;17.00;49.20;;;;;;4997412;28;20479;-77
2022/02/12 12:36:38;;;;;;;15.40;10.07;;;17.00;49.20;;;;;;4992164;28;20062;-76
2022/02/12 12:39:13;;;;;;;21.58;12.88;;;17.10;49.50;;;;;;4994460;28;20038;-79
2022/02/12 12:41:42;;;;;;;19.70;11.20;;;17.10;49.40;;;;;;4994868;28;20026;-75
2022/02/12 12:44:15;;;;;;;16.05;9.40;;;17.20;49.40;;;;;;4994265;28;20022;-76
2022/02/12 12:46:45;;;;;;;16.00;9.63;;;17.30;48.50;;;;;;4994402;28;20030;-75